.
WxDataArchive / Data Records for 2011-08-14
2011-08-13 August 2011 2011-08-15

Data Records for Sunday, 14 August 2011

Time	Temp	Chill	HIndex	Humid	Dewpt	 Wind 	HiWind	WindDir	Rain 	Barom 
-----	----	-----	------	-----	-----	------	------	-------	-----	----- 
00:00	63.1	63.1	63.1	93	61.0	0	1	248	0.00	29.840 
00:05	63.1	63.1	63.1	93	61.0	0	1	248	0.01	29.840 
00:10	63.1	63.1	63.1	93	61.0	0	1	248	0.00	29.840 
00:15	62.9	62.9	62.9	93	60.8	0	1	248	0.00	29.836 
00:20	62.9	62.9	62.9	93	60.8	0	1	248	0.00	29.836 
00:25	62.9	62.9	62.9	93	60.8	0	1	248	0.00	29.836 
00:30	62.7	62.7	62.7	93	60.6	0	2	248	0.00	29.835 
00:35	62.7	62.7	62.7	93	60.6	0	1	248	0.00	29.835 
00:40	62.6	62.6	62.6	94	60.8	0	0	---	0.00	29.835 
00:45	62.6	62.6	62.6	94	60.8	0	0	---	0.00	29.830 
00:50	62.7	62.7	62.7	94	60.9	0	0	---	0.00	29.830 
00:55	62.6	62.6	62.6	94	60.8	0	0	---	0.00	29.830 
01:00	62.6	62.6	62.6	94	60.8	0	0	---	0.00	29.823 
01:05	62.6	62.6	62.6	94	60.8	0	0	---	0.01	29.823 
01:10	62.6	62.6	62.6	94	60.8	0	0	---	0.00	29.823 
01:15	62.6	62.6	62.6	94	60.8	0	0	---	0.00	29.814 
01:20	62.6	62.6	62.6	94	60.8	0	0	---	0.00	29.814 
01:25	62.6	62.6	62.6	94	60.8	0	0	---	0.00	29.814 
01:30	62.6	62.6	62.6	94	60.8	0	0	---	0.00	29.808 
01:35	62.6	62.6	62.6	94	60.8	0	0	---	0.00	29.808 
01:40	62.6	62.6	62.6	94	60.8	0	0	---	0.00	29.808 
01:45	62.6	62.6	62.6	94	60.8	0	0	---	0.00	29.806 
01:50	62.6	62.6	62.6	94	60.8	0	0	---	0.00	29.806 
01:55	62.6	62.6	62.6	94	60.8	0	0	---	0.00	29.806 
02:00	62.6	62.6	62.6	94	60.8	0	0	---	0.00	29.800 
02:05	62.6	62.6	62.6	94	60.8	0	0	---	0.00	29.800 
02:10	62.6	62.6	62.6	95	61.1	0	0	---	0.00	29.800 
02:15	62.6	62.6	62.6	95	61.1	0	0	---	0.00	29.794 
02:20	62.6	62.6	62.6	95	61.1	0	0	---	0.00	29.794 
02:25	62.6	62.6	62.6	95	61.1	0	0	---	0.00	29.794 
02:30	62.6	62.6	62.6	95	61.1	0	1	248	0.00	29.788 
02:35	62.6	62.6	62.6	95	61.1	0	1	248	0.00	29.788 
02:40	62.6	62.6	62.6	95	61.1	0	1	248	0.00	29.788 
02:45	62.7	62.7	62.7	95	61.2	0	1	248	0.00	29.780 
02:50	62.9	62.9	62.9	95	61.4	0	1	248	0.00	29.780 
02:55	62.9	62.9	62.9	95	61.4	0	1	248	0.00	29.780 
03:00	62.9	62.9	62.9	95	61.4	0	1	248	0.00	29.780 
03:05	62.7	62.7	62.7	95	61.2	0	1	248	0.00	29.780 
03:10	62.6	62.6	62.6	95	61.1	0	1	248	0.00	29.780 
03:15	62.4	62.4	62.4	95	60.9	0	1	248	0.00	29.786 
03:20	62.3	62.3	62.3	95	60.8	0	1	248	0.00	29.786 
03:25	62.3	62.3	62.3	95	60.8	0	1	248	0.00	29.786 
03:30	62.1	62.1	62.1	95	60.6	0	1	248	0.00	29.791 
03:35	62.1	62.1	62.1	95	60.6	0	0	---	0.00	29.791 
03:40	62.1	62.1	62.1	95	60.6	0	1	248	0.00	29.791 
03:45	62.0	62.0	62.0	95	60.5	0	0	---	0.00	29.791 
03:50	62.1	62.1	62.1	95	60.6	0	1	248	0.00	29.791 
03:55	62.0	62.0	62.0	95	60.5	0	1	248	0.00	29.791 
04:00	62.0	62.0	62.0	95	60.5	0	0	---	0.00	29.792 
04:05	62.0	62.0	62.0	95	60.5	0	0	---	0.00	29.792 
04:10	62.0	62.0	62.0	95	60.5	0	0	---	0.00	29.792 
04:15	62.0	62.0	62.0	95	60.5	0	0	---	0.00	29.793 
04:20	62.0	62.0	62.0	95	60.5	0	0	---	0.00	29.793 
04:25	62.0	62.0	62.0	95	60.5	0	0	---	0.00	29.793 
04:30	62.0	62.0	62.0	95	60.5	0	0	---	0.00	29.796 
04:35	61.8	61.8	61.8	95	60.3	0	0	---	0.00	29.796 
04:40	61.8	61.8	61.8	95	60.3	0	0	---	0.00	29.796 
04:45	61.8	61.8	61.8	95	60.3	0	0	---	0.00	29.805 
04:50	61.8	61.8	61.8	95	60.3	0	0	---	0.00	29.805 
04:55	61.8	61.8	61.8	95	60.3	0	0	---	0.00	29.805 
05:00	61.6	61.6	61.6	95	60.2	0	0	---	0.00	29.806 
05:05	61.6	61.6	61.6	95	60.2	0	0	---	0.00	29.806 
05:10	61.6	61.6	61.6	95	60.2	0	0	---	0.00	29.806 
05:15	61.6	61.6	61.6	95	60.2	0	0	---	0.00	29.806 
05:20	61.6	61.6	61.6	95	60.2	0	0	---	0.00	29.806 
05:25	61.8	61.8	61.8	95	60.3	0	0	---	0.00	29.806 
05:30	61.8	61.8	61.8	95	60.3	0	0	---	0.00	29.806 
05:35	61.8	61.8	61.8	95	60.3	0	0	---	0.00	29.806 
05:40	61.8	61.8	61.8	96	60.6	0	0	---	0.00	29.806 
05:45	62.0	62.0	62.0	95	60.5	0	0	---	0.00	29.805 
05:50	62.0	62.0	62.0	96	60.8	0	0	---	0.00	29.805 
05:55	62.0	62.0	62.0	96	60.8	0	0	---	0.00	29.805 
06:00	62.1	62.1	62.1	96	60.9	0	0	---	0.00	29.805 
06:05	62.1	62.1	62.1	96	60.9	0	0	---	0.00	29.805 
06:10	62.1	62.1	62.1	96	60.9	0	0	---	0.01	29.805 
06:15	62.1	62.1	62.1	96	60.9	0	0	---	0.00	29.808 
06:20	62.1	62.1	62.1	96	60.9	0	0	---	0.00	29.808 
06:25	62.3	62.3	62.3	96	61.1	0	0	---	0.00	29.808 
06:30	62.3	62.3	62.3	96	61.1	0	0	---	0.00	29.808 
06:35	62.3	62.3	62.3	96	61.1	0	0	---	0.00	29.808 
06:40	62.3	62.3	62.3	96	61.1	0	0	---	0.00	29.808 
06:45	62.3	62.3	62.3	96	61.1	0	0	---	0.00	29.810 
06:50	62.4	62.4	62.4	96	61.2	0	0	---	0.00	29.810 
06:55	62.4	62.4	62.4	96	61.2	0	0	---	0.00	29.810 
07:00	62.3	62.3	62.3	96	61.1	0	0	---	0.00	29.810 
07:05	62.3	62.3	62.3	96	61.1	0	0	---	0.00	29.810 
07:10	62.3	62.3	62.3	96	61.1	0	0	---	0.00	29.810 
07:15	62.3	62.3	62.3	96	61.1	0	0	---	0.00	29.815 
07:20	62.1	62.1	62.1	96	60.9	0	0	---	0.00	29.815 
07:25	62.1	62.1	62.1	96	60.9	0	0	---	0.00	29.815 
07:30	62.1	62.1	62.1	96	60.9	0	0	---	0.00	29.815 
07:35	62.3	62.3	62.3	96	61.1	0	0	---	0.00	29.815 
07:40	62.3	62.3	62.3	96	61.1	0	0	---	0.00	29.815 
07:45	62.3	62.3	62.3	96	61.1	0	0	---	0.00	29.817 
07:50	62.4	62.4	62.4	96	61.2	0	0	---	0.00	29.817 
07:55	62.4	62.4	62.4	96	61.2	0	0	---	0.00	29.817 
08:00	62.6	62.6	62.6	96	61.4	0	0	---	0.00	29.822 
08:05	62.6	62.6	62.6	96	61.4	0	0	---	0.00	29.822 
08:10	62.6	62.6	62.6	96	61.4	0	0	---	0.00	29.822 
08:15	62.6	62.6	62.6	96	61.4	0	0	---	0.00	29.831 
08:20	62.6	62.6	62.6	96	61.4	0	0	---	0.00	29.831 
08:25	62.6	62.6	62.6	96	61.4	0	0	---	0.00	29.831 
08:30	62.6	62.6	62.6	96	61.4	0	0	---	0.00	29.834 
08:35	62.6	62.6	62.6	96	61.4	0	0	---	0.00	29.834 
08:40	62.7	62.7	62.7	96	61.5	0	0	---	0.00	29.834 
08:45	62.9	62.9	62.9	96	61.7	0	0	---	0.00	29.837 
08:50	62.9	62.9	62.9	96	61.7	0	0	---	0.00	29.837 
08:55	62.9	62.9	62.9	96	61.7	0	1	248	0.00	29.837 
09:00	62.9	62.9	62.9	96	61.7	0	1	248	0.00	29.839 
09:05	62.9	62.9	62.9	96	61.7	0	0	---	0.00	29.839 
09:10	63.1	63.1	63.1	96	61.9	0	1	248	0.00	29.839 
09:15	63.1	63.1	63.1	96	61.9	0	1	248	0.00	29.841 
09:20	63.1	63.1	63.1	96	61.9	0	0	---	0.00	29.841 
09:25	63.2	63.2	63.2	96	62.0	0	0	---	0.00	29.841 
09:30	63.4	63.4	63.4	96	62.2	0	0	---	0.00	29.840 
09:35	63.4	63.4	63.4	96	62.2	0	1	248	0.00	29.840 
09:40	63.5	63.5	63.5	96	62.3	0	0	---	0.00	29.840 
09:45	63.5	63.5	63.5	96	62.3	0	1	248	0.00	29.844 
09:50	63.7	63.7	63.7	96	62.5	0	1	248	0.00	29.844 
09:55	63.5	63.5	63.5	96	62.3	0	1	248	0.00	29.844 
10:00	63.7	63.7	63.7	96	62.5	0	0	---	0.00	29.850 
10:05	63.9	63.9	63.9	96	62.7	0	1	248	0.00	29.850 
10:10	64.0	64.0	64.0	96	62.8	0	1	248	0.00	29.850 
10:15	64.5	64.5	64.5	96	63.3	0	1	248	0.00	29.851 
10:20	64.8	64.8	64.8	96	63.6	0	1	248	0.00	29.851 
10:25	64.8	64.8	64.8	95	63.3	0	1	248	0.00	29.851 
10:30	65.0	65.0	65.0	95	63.5	0	0	---	0.00	29.852 
10:35	65.0	65.0	65.0	95	63.5	0	2	248	0.00	29.852 
10:40	65.0	65.0	65.0	94	63.2	0	1	248	0.00	29.852 
10:45	65.3	65.3	65.3	94	63.5	0	0	---	0.00	29.854 
10:50	65.2	65.2	65.2	93	63.1	0	1	248	0.00	29.854 
10:55	65.2	65.2	65.2	93	63.1	0	1	248	0.00	29.854 
11:00	65.3	65.3	65.3	93	63.2	0	1	248	0.00	29.859 
11:05	65.6	65.6	65.6	92	63.2	0	1	248	0.00	29.859 
11:10	66.0	66.0	66.0	92	63.6	0	1	248	0.00	29.859 
11:15	66.4	66.4	66.4	92	64.0	0	1	248	0.00	29.860 
11:20	66.8	66.8	66.8	90	63.8	0	2	248	0.00	29.860 
11:25	66.9	66.9	66.9	89	63.5	0	1	248	0.00	29.860 
11:30	66.8	66.8	66.8	88	63.1	0	0	---	0.00	29.860 
11:35	66.6	66.6	66.6	88	62.9	0	1	248	0.00	29.860 
11:40	66.8	66.8	66.8	87	62.8	0	1	248	0.00	29.860 
11:45	66.9	66.9	66.9	87	62.9	0	1	248	0.00	29.862 
11:50	66.9	66.9	66.9	86	62.6	0	1	248	0.00	29.862 
11:55	66.8	66.8	66.8	86	62.5	0	1	248	0.00	29.862 
12:00	66.8	66.8	66.8	86	62.5	0	1	248	0.00	29.862 
12:05	66.8	66.8	66.8	86	62.5	0	1	248	0.00	29.862 
12:10	67.1	67.1	67.1	86	62.8	0	1	248	0.00	29.862 
12:15	67.4	67.4	67.4	86	63.1	0	1	248	0.00	29.857 
12:20	68.1	68.1	68.1	86	63.7	0	1	248	0.00	29.857 
12:25	68.4	68.4	68.4	83	63.0	0	1	248	0.00	29.857 
12:30	68.6	68.6	68.6	83	63.2	0	1	248	0.00	29.854 
12:35	69.1	69.1	69.1	82	63.4	0	2	248	0.00	29.854 
12:40	69.4	69.4	69.4	81	63.3	0	2	248	0.00	29.854 
12:45	69.6	69.6	69.6	80	63.1	0	2	270	0.00	29.853 
12:50	69.4	69.4	69.4	80	63.0	1	4	270	0.00	29.853 
12:55	69.3	69.3	69.3	81	63.2	1	5	292	0.00	29.853 
13:00	69.1	69.1	69.1	80	62.7	2	4	270	0.00	29.851 
13:05	69.4	69.4	69.4	81	63.3	1	3	270	0.00	29.851 
13:10	69.6	69.6	69.6	81	63.5	1	3	270	0.00	29.851 
13:15	69.6	69.6	69.6	81	63.5	0	2	270	0.00	29.851 
13:20	69.4	69.4	69.4	81	63.3	1	3	292	0.00	29.851 
13:25	69.4	69.4	69.4	81	63.3	1	4	292	0.00	29.851 
13:30	69.8	69.8	69.8	81	63.7	0	2	112	0.00	29.851 
13:35	69.8	69.8	69.8	80	63.3	0	3	112	0.00	29.851 
13:40	69.6	69.6	69.6	80	63.1	0	2	112	0.00	29.851 
13:45	69.9	69.9	69.9	80	63.4	0	3	112	0.00	29.850 
13:50	70.4	70.4	70.4	79	63.6	1	4	292	0.00	29.850 
13:55	70.8	70.8	70.8	78	63.6	0	3	248	0.00	29.850 
14:00	70.9	70.9	70.9	77	63.3	0	2	270	0.00	29.849 
14:05	71.1	71.1	71.1	77	63.5	1	3	270	0.00	29.849 
14:10	71.8	71.8	71.8	77	64.2	1	3	270	0.00	29.849 
14:15	72.1	72.1	72.1	74	63.3	1	4	270	0.00	29.847 
14:20	71.8	71.8	71.8	74	63.1	1	4	338	0.00	29.847 
14:25	71.8	71.8	71.8	75	63.4	0	2	338	0.00	29.847 
14:30	71.8	71.8	71.8	75	63.4	1	3	338	0.00	29.846 
14:35	72.1	72.1	72.1	74	63.3	1	4	338	0.00	29.846 
14:40	72.3	72.3	72.3	75	63.9	1	3	292	0.00	29.846 
14:45	72.3	72.3	72.3	74	63.5	0	2	292	0.00	29.848 
14:50	72.1	72.1	72.1	74	63.3	0	3	292	0.00	29.848 
14:55	72.1	72.1	72.1	75	63.7	0	1	292	0.00	29.848 
15:00	72.8	72.8	72.8	77	65.2	0	2	292	0.00	29.843 
15:05	73.5	73.5	73.5	72	63.9	1	6	270	0.00	29.843 
15:10	74.2	74.2	74.2	71	64.2	0	1	248	0.00	29.843 
15:15	74.4	74.4	74.4	69	63.5	1	5	315	0.00	29.840 
15:20	74.0	74.0	74.0	69	63.2	0	3	292	0.00	29.840 
15:25	74.4	74.4	74.4	69	63.5	1	4	45	0.00	29.840 
15:30	74.7	74.7	74.7	66	62.6	1	4	270	0.00	29.837 
15:35	73.7	73.7	73.7	66	61.6	2	5	315	0.00	29.837 
15:40	73.3	73.3	73.3	69	62.5	1	4	292	0.00	29.837 
15:45	73.3	73.3	73.3	67	61.7	1	4	315	0.00	29.840 
15:50	73.3	73.3	73.3	69	62.5	1	4	292	0.00	29.840 
15:55	74.0	74.0	74.0	70	63.6	1	6	270	0.00	29.840 
16:00	75.3	75.3	77.1	68	64.0	1	5	202	0.00	29.839 
16:05	75.8	75.8	77.7	65	63.2	1	4	315	0.00	29.839 
16:10	75.6	75.6	77.5	65	63.0	1	3	0	0.00	29.839 
16:15	75.8	75.8	77.7	64	62.7	2	6	292	0.00	29.833 
16:20	75.8	75.8	77.8	62	61.8	1	5	270	0.00	29.833 
16:25	75.6	75.6	77.6	64	62.5	1	5	292	0.00	29.833 
16:30	75.3	75.3	77.3	65	62.7	1	4	315	0.00	29.834 
16:35	74.7	74.7	74.7	64	61.7	2	6	338	0.00	29.834 
16:40	74.4	74.4	74.4	66	62.3	2	5	338	0.00	29.834 
16:45	73.9	73.9	73.9	68	62.7	2	4	315	0.00	29.843 
16:50	73.3	73.3	73.3	68	62.1	2	6	315	0.00	29.843 
16:55	72.8	72.8	72.8	68	61.6	2	5	292	0.00	29.843 
17:00	72.5	72.5	72.5	69	61.7	1	4	292	0.00	29.848 
17:05	72.3	72.3	72.3	70	62.0	1	4	270	0.00	29.848 
17:10	72.3	72.3	72.3	70	62.0	0	2	270	0.00	29.848 
17:15	72.7	72.7	72.7	70	62.3	0	3	292	0.00	29.846 
17:20	73.2	73.2	73.2	70	62.8	1	4	315	0.00	29.846 
17:25	73.3	73.3	73.3	69	62.5	0	4	315	0.00	29.846 
17:30	73.2	73.2	73.2	70	62.8	0	2	315	0.00	29.845 
17:35	71.5	71.5	71.5	72	62.0	3	9	315	0.00	29.845 
17:40	68.8	68.8	68.8	81	62.7	2	8	292	0.03	29.845 
17:45	67.3	67.3	67.3	85	62.6	1	3	292	0.02	29.859 
17:50	66.8	66.8	66.8	88	63.1	0	3	292	0.00	29.859 
17:55	66.6	66.6	66.6	90	63.6	0	1	270	0.00	29.859 
18:00	66.8	66.8	66.8	91	64.1	0	2	270	0.00	29.855 
18:05	66.8	66.8	66.8	91	64.1	0	1	270	0.00	29.855 
18:10	66.9	66.9	66.9	92	64.5	0	2	270	0.00	29.855 
18:15	67.3	67.3	67.3	92	64.9	0	2	270	0.00	29.855 
18:20	67.6	67.6	67.6	92	65.2	0	2	270	0.00	29.855 
18:25	68.1	68.1	68.1	92	65.7	0	1	270	0.00	29.855 
18:30	67.9	67.9	67.9	92	65.5	0	2	270	0.00	29.855 
18:35	67.9	67.9	67.9	92	65.5	1	2	270	0.00	29.855 
18:40	67.9	67.9	67.9	92	65.5	0	1	270	0.00	29.855 
18:45	67.9	67.9	67.9	91	65.2	0	3	270	0.00	29.855 
18:50	67.9	67.9	67.9	91	65.2	0	1	270	0.00	29.855 
18:55	68.1	68.1	68.1	91	65.4	0	1	270	0.00	29.855 
19:00	68.1	68.1	68.1	91	65.4	0	0	---	0.01	29.854 
19:05	68.1	68.1	68.1	91	65.4	0	1	270	0.01	29.854 
19:10	67.9	67.9	67.9	91	65.2	0	2	248	0.05	29.854 
19:15	67.8	67.8	67.8	91	65.1	0	1	248	0.00	29.859 
19:20	67.8	67.8	67.8	92	65.4	0	1	248	0.00	29.859 
19:25	67.8	67.8	67.8	92	65.4	0	1	248	0.00	29.859 
19:30	67.9	67.9	67.9	92	65.5	0	3	248	0.00	29.859 
19:35	67.4	67.4	67.4	92	65.0	1	7	292	0.00	29.859 
19:40	66.8	66.8	66.8	91	64.1	1	5	292	0.00	29.859 
19:45	66.6	66.6	66.6	91	63.9	1	3	338	0.00	29.866 
19:50	66.4	66.4	66.4	91	63.7	1	4	338	0.00	29.866 
19:55	66.3	66.3	66.3	92	63.9	1	5	270	0.00	29.866 
20:00	66.1	66.1	66.1	92	63.7	0	3	0	0.00	29.869 
20:05	66.0	66.0	66.0	92	63.6	1	4	270	0.00	29.869 
20:10	66.0	66.0	66.0	92	63.6	0	2	270	0.00	29.869 
20:15	66.0	66.0	66.0	92	63.6	0	1	270	0.00	29.873 
20:20	65.8	65.8	65.8	92	63.4	1	4	270	0.00	29.873 
20:25	65.8	65.8	65.8	92	63.4	1	3	270	0.00	29.873 
20:30	65.8	65.8	65.8	92	63.4	0	2	270	0.00	29.873 
20:35	65.6	65.6	65.6	92	63.2	0	1	270	0.00	29.873 
20:40	65.6	65.6	65.6	92	63.2	0	1	270	0.00	29.873 
20:45	65.6	65.6	65.6	92	63.2	0	1	270	0.00	29.872 
20:50	65.5	65.5	65.5	93	63.4	0	1	270	0.00	29.872 
20:55	65.5	65.5	65.5	93	63.4	0	1	270	0.00	29.872 
21:00	65.3	65.3	65.3	93	63.2	0	2	270	0.00	29.875 
21:05	65.3	65.3	65.3	93	63.2	0	3	270	0.00	29.875 
21:10	65.3	65.3	65.3	93	63.2	0	2	270	0.00	29.875 
21:15	65.2	65.2	65.2	93	63.1	0	2	270	0.00	29.874 
21:20	65.2	65.2	65.2	93	63.1	0	1	270	0.00	29.874 
21:25	65.2	65.2	65.2	93	63.1	0	1	270	0.00	29.874 
21:30	65.2	65.2	65.2	93	63.1	0	1	270	0.00	29.877 
21:35	65.0	65.0	65.0	93	62.9	0	1	270	0.00	29.877 
21:40	65.0	65.0	65.0	93	62.9	0	1	270	0.00	29.877 
21:45	65.0	65.0	65.0	93	62.9	0	1	270	0.00	29.878 
21:50	64.8	64.8	64.8	93	62.7	0	1	270	0.00	29.878 
21:55	64.8	64.8	64.8	93	62.7	0	1	270	0.00	29.878 
22:00	64.8	64.8	64.8	93	62.7	0	1	270	0.00	29.885 
22:05	64.8	64.8	64.8	94	63.0	0	1	270	0.00	29.885 
22:10	64.7	64.7	64.7	94	62.9	0	1	270	0.00	29.885 
22:15	64.7	64.7	64.7	94	62.9	0	1	270	0.00	29.884 
22:20	64.7	64.7	64.7	94	62.9	0	1	270	0.00	29.884 
22:25	64.5	64.5	64.5	94	62.7	0	0	---	0.00	29.884 
22:30	64.5	64.5	64.5	94	62.7	0	0	---	0.00	29.885 
22:35	64.3	64.3	64.3	94	62.5	0	1	270	0.00	29.885 
22:40	64.3	64.3	64.3	94	62.5	0	1	270	0.00	29.885 
22:45	64.3	64.3	64.3	94	62.5	0	1	270	0.00	29.897 
22:50	64.3	64.3	64.3	94	62.5	0	1	270	0.00	29.897 
22:55	64.3	64.3	64.3	94	62.5	0	1	270	0.00	29.897 
23:00	64.2	64.2	64.2	94	62.4	0	1	270	0.00	29.901 
23:05	64.2	64.2	64.2	94	62.4	0	1	270	0.00	29.901 
23:10	64.2	64.2	64.2	94	62.4	0	1	270	0.00	29.901 
23:15	64.2	64.2	64.2	94	62.4	0	2	270	0.00	29.901 
23:20	64.2	64.2	64.2	94	62.4	0	1	270	0.00	29.901 
23:25	64.2	64.2	64.2	94	62.4	0	1	270	0.00	29.901 
23:30	64.2	64.2	64.2	94	62.4	0	1	270	0.00	29.904 
23:35	64.2	64.2	64.2	94	62.4	0	0	---	0.00	29.904 
23:40	64.0	64.0	64.0	94	62.2	0	0	---	0.00	29.904 
23:45	64.0	64.0	64.0	94	62.2	0	0	---	0.00	29.908 
23:50	64.0	64.0	64.0	94	62.2	0	0	---	0.00	29.908 
23:55	63.9	63.9	63.9	94	62.1	0	0	---	0.00	29.908 

CoCoRaHS
IN-AL-39
A2 Web Hosting
Creative Commons License
GoDaddy
search engine by freefind advanced

loaded 2018-11-15 03:05:46 • last modified 2010-11-18 10:43:29
Privacy PolicyDisclaimer
• wx.awcolley.com is powered by PmWiki v.2002016 •
• all content (unless otherwise noted) © 2018 A W Colley